WZZ94EJ UGTB-LGTS
Flight info
| Callsign | WZZ94EJ |
|---|---|
| Flight time | N/A |
| Altitude | 36000 |
| Route | DF N11 ROLIN UN644 SIN UW90 INB DCT CAY DCT TUNCA DCT OKIPI DCT IST UM603 ARNAS |
| Aircraft | A21N/M-SDE2E3FGHIRWXY/LB1 |
Departure
| Time | 2026-05-01 11:46 |
|---|---|
| Airport | Tbilisi International Airport (UGTB) |
Arrival
| Time | N/A |
|---|---|
| Airport | Thessaloniki Macedonia International Airport (LGTS) |
| Time | Latitude | Longitude | Altitude | Speed | Heading |
|---|---|---|---|---|---|
| 2026-05-01 11:33 | 41.67121 | 44.95974 | 1521 ft | 0 kts | 125° |
| 2026-05-01 11:41 | 41.67120 | 44.95976 | 1556 ft | 2 kts | 127° |
| 2026-05-01 11:41 | 41.67101 | 44.95995 | 1525 ft | 4 kts | 152° |
| 2026-05-01 11:42 | 41.67084 | 44.95994 | 1522 ft | 3 kts | 191° |
| 2026-05-01 11:42 | 41.67051 | 44.95971 | 1524 ft | 6 kts | 238° |
| 2026-05-01 11:42 | 41.67064 | 44.95890 | 1525 ft | 12 kts | 308° |
| 2026-05-01 11:42 | 41.67119 | 44.95806 | 1529 ft | 11 kts | 315° |
| 2026-05-01 11:43 | 41.67176 | 44.95738 | 1525 ft | 11 kts | 325° |
| 2026-05-01 11:43 | 41.67234 | 44.95669 | 1521 ft | 14 kts | 311° |
| 2026-05-01 11:43 | 41.67325 | 44.95532 | 1523 ft | 25 kts | 307° |
| 2026-05-01 11:44 | 41.67644 | 44.95076 | 1521 ft | 29 kts | 310° |
| 2026-05-01 11:44 | 41.67646 | 44.94879 | 1526 ft | 20 kts | 240° |
| 2026-05-01 11:44 | 41.67603 | 44.94696 | 1533 ft | 23 kts | 254° |
| 2026-05-01 11:44 | 41.67555 | 44.94497 | 1554 ft | 27 kts | 252° |
| 2026-05-01 11:45 | 41.67516 | 44.94375 | 1553 ft | 3 kts | 210° |
| 2026-05-01 11:45 | 41.67471 | 44.94411 | 1552 ft | 22 kts | 138° |
| 2026-05-01 11:45 | 41.67203 | 44.94743 | 1547 ft | 82 kts | 136° |
| 2026-05-01 11:45 | 41.66631 | 44.95467 | 1538 ft | 144 kts | 136° |
| 2026-05-01 11:46 | 41.65807 | 44.96473 | 1808 ft | 162 kts | 140° |
| 2026-05-01 11:46 | 41.64987 | 44.97454 | 2337 ft | 160 kts | 137° |
| 2026-05-01 11:46 | 41.64199 | 44.98493 | 2905 ft | 158 kts | 137° |
| 2026-05-01 11:46 | 41.63411 | 44.99533 | 3399 ft | 167 kts | 137° |
| 2026-05-01 11:47 | 41.62510 | 45.00705 | 3640 ft | 193 kts | 136° |
| 2026-05-01 11:47 | 41.61483 | 45.02032 | 3900 ft | 217 kts | 136° |
| 2026-05-01 11:47 | 41.60294 | 45.03454 | 4137 ft | 244 kts | 147° |
| 2026-05-01 11:47 | 41.58619 | 45.04030 | 4622 ft | 259 kts | 184° |
| 2026-05-01 11:48 | 41.56941 | 45.03128 | 5359 ft | 269 kts | 219° |
| 2026-05-01 11:48 | 41.55885 | 45.01063 | 6176 ft | 278 kts | 251° |
| 2026-05-01 11:48 | 41.55812 | 44.98511 | 7023 ft | 283 kts | 285° |
| 2026-05-01 11:48 | 41.56787 | 44.96270 | 8026 ft | 282 kts | 311° |
| 2026-05-01 11:49 | 41.58246 | 44.94502 | 8896 ft | 284 kts | 318° |
| 2026-05-01 11:49 | 41.59790 | 44.92832 | 9713 ft | 288 kts | 317° |
| 2026-05-01 11:49 | 41.61359 | 44.91128 | 10369 ft | 296 kts | 317° |
| 2026-05-01 11:49 | 41.62998 | 44.89311 | 10666 ft | 316 kts | 316° |
| 2026-05-01 11:50 | 41.64730 | 44.87363 | 10946 ft | 336 kts | 316° |
| 2026-05-01 11:50 | 41.66555 | 44.85299 | 11389 ft | 349 kts | 316° |
| 2026-05-01 11:50 | 41.68421 | 44.83184 | 12088 ft | 353 kts | 316° |
| 2026-05-01 11:50 | 41.70305 | 44.81043 | 12824 ft | 357 kts | 316° |
| 2026-05-01 11:51 | 41.72205 | 44.78878 | 13549 ft | 360 kts | 316° |
| 2026-05-01 11:51 | 41.74097 | 44.76719 | 14210 ft | 364 kts | 316° |
| 2026-05-01 11:51 | 41.76031 | 44.74509 | 14837 ft | 367 kts | 316° |
| 2026-05-01 11:51 | 41.77987 | 44.72272 | 15496 ft | 370 kts | 316° |
| 2026-05-01 11:52 | 41.79952 | 44.70022 | 16135 ft | 374 kts | 316° |
| 2026-05-01 11:52 | 41.81944 | 44.67738 | 16767 ft | 377 kts | 316° |
| 2026-05-01 11:52 | 41.83946 | 44.65445 | 17366 ft | 380 kts | 316° |
| 2026-05-01 11:52 | 41.85965 | 44.63130 | 18033 ft | 383 kts | 315° |
| 2026-05-01 11:53 | 41.88000 | 44.60790 | 18597 ft | 386 kts | 315° |
| 2026-05-01 11:53 | 41.89955 | 44.58320 | 19090 ft | 385 kts | 306° |
| 2026-05-01 11:53 | 41.91288 | 44.55289 | 19564 ft | 380 kts | 285° |
| 2026-05-01 11:53 | 41.91843 | 44.51839 | 20058 ft | 378 kts | 274° |
| 2026-05-01 11:54 | 41.92012 | 44.48318 | 20582 ft | 379 kts | 268° |
| 2026-05-01 11:54 | 41.91988 | 44.44764 | 21095 ft | 381 kts | 266° |
| 2026-05-01 11:54 | 41.91890 | 44.41202 | 21667 ft | 382 kts | 265° |
| 2026-05-01 11:54 | 41.91787 | 44.37634 | 22163 ft | 384 kts | 266° |
| 2026-05-01 11:55 | 41.91707 | 44.34030 | 22647 ft | 387 kts | 266° |
| 2026-05-01 11:55 | 41.91654 | 44.30406 | 23136 ft | 390 kts | 267° |
| 2026-05-01 11:55 | 41.91624 | 44.26757 | 23591 ft | 392 kts | 267° |
| 2026-05-01 11:55 | 41.91608 | 44.23085 | 23957 ft | 395 kts | 267° |
| 2026-05-01 11:56 | 41.91599 | 44.19386 | 24304 ft | 398 kts | 267° |
| 2026-05-01 11:56 | 41.91590 | 44.15648 | 24662 ft | 400 kts | 267° |
| 2026-05-01 11:56 | 41.91581 | 44.11954 | 25029 ft | 402 kts | 267° |
| 2026-05-01 11:56 | 41.91571 | 44.08193 | 25361 ft | 404 kts | 267° |
| 2026-05-01 11:57 | 41.91558 | 44.04404 | 25577 ft | 408 kts | 267° |
| 2026-05-01 11:57 | 41.91547 | 44.01823 | 25837 ft | 409 kts | 267° |
| 2026-05-01 11:57 | 41.91522 | 43.96746 | 26291 ft | 411 kts | 267° |
| 2026-05-01 11:57 | 41.91501 | 43.92891 | 26567 ft | 414 kts | 267° |
| 2026-05-01 11:58 | 41.91478 | 43.89011 | 26887 ft | 417 kts | 267° |
| 2026-05-01 11:58 | 41.91454 | 43.85103 | 27193 ft | 418 kts | 267° |
| 2026-05-01 11:58 | 41.91404 | 43.77297 | 27792 ft | 422 kts | 267° |
| 2026-05-01 11:59 | 41.91378 | 43.73344 | 28106 ft | 424 kts | 267° |
| 2026-05-01 11:59 | 41.91350 | 43.69371 | 28384 ft | 426 kts | 267° |
| 2026-05-01 11:59 | 41.91318 | 43.65368 | 28652 ft | 428 kts | 267° |
| 2026-05-01 12:00 | 41.91253 | 43.57450 | 29492 ft | 425 kts | 267° |
| 2026-05-01 12:00 | 41.91217 | 43.53486 | 29815 ft | 425 kts | 267° |
| 2026-05-01 12:00 | 41.91146 | 43.45570 | 30519 ft | 422 kts | 266° |
| 2026-05-01 12:01 | 41.91109 | 43.41650 | 30898 ft | 419 kts | 266° |
| 2026-05-01 12:01 | 41.91070 | 43.37740 | 31183 ft | 419 kts | 266° |
| 2026-05-01 12:01 | 41.91028 | 43.33832 | 31556 ft | 418 kts | 266° |
| 2026-05-01 12:01 | 41.90984 | 43.29975 | 32022 ft | 414 kts | 266° |
| 2026-05-01 12:02 | 41.90941 | 43.26067 | 32340 ft | 413 kts | 266° |
| 2026-05-01 12:02 | 41.90899 | 43.22255 | 32532 ft | 414 kts | 266° |
| 2026-05-01 12:02 | 41.90854 | 43.18383 | 32778 ft | 413 kts | 266° |
| 2026-05-01 12:02 | 41.90805 | 43.14512 | 32974 ft | 413 kts | 266° |
| 2026-05-01 12:03 | 41.90751 | 43.10657 | 33190 ft | 412 kts | 266° |
| 2026-05-01 12:03 | 41.90703 | 43.06877 | 33492 ft | 409 kts | 266° |
| 2026-05-01 12:03 | 41.90655 | 43.03060 | 33725 ft | 408 kts | 266° |
| 2026-05-01 12:04 | 41.90559 | 42.95412 | 33919 ft | 410 kts | 266° |
| 2026-05-01 12:04 | 41.90505 | 42.91580 | 34128 ft | 408 kts | 266° |
| 2026-05-01 12:04 | 41.90451 | 42.87777 | 34299 ft | 407 kts | 266° |
| 2026-05-01 12:05 | 41.90276 | 42.80206 | 34407 ft | 408 kts | 264° |
| 2026-05-01 12:05 | 41.89976 | 42.72618 | 34778 ft | 405 kts | 264° |
| 2026-05-01 12:05 | 41.89817 | 42.68834 | 34860 ft | 405 kts | 264° |
| 2026-05-01 12:06 | 41.89498 | 42.61266 | 35048 ft | 407 kts | 264° |
| 2026-05-01 12:06 | 41.89183 | 42.53697 | 35209 ft | 408 kts | 264° |
| 2026-05-01 12:07 | 41.89025 | 42.49893 | 35327 ft | 408 kts | 264° |
| 2026-05-01 12:07 | 41.88869 | 42.46099 | 35548 ft | 406 kts | 263° |
| 2026-05-01 12:07 | 41.88712 | 42.42317 | 35676 ft | 406 kts | 263° |
| 2026-05-01 12:07 | 41.88552 | 42.38524 | 35732 ft | 407 kts | 263° |
| 2026-05-01 12:08 | 41.88283 | 42.32214 | 35793 ft | 409 kts | 263° |
| 2026-05-01 12:08 | 41.87953 | 42.24567 | 35861 ft | 411 kts | 263° |
| 2026-05-01 12:09 | 41.87615 | 42.16892 | 35898 ft | 412 kts | 263° |
| 2026-05-01 12:09 | 41.87272 | 42.09225 | 35912 ft | 411 kts | 263° |
| 2026-05-01 12:10 | 41.86750 | 41.97719 | 35931 ft | 411 kts | 263° |
| 2026-05-01 12:11 | 41.86220 | 41.86277 | 35941 ft | 409 kts | 263° |
| 2026-05-01 12:11 | 41.85861 | 41.78691 | 35961 ft | 409 kts | 263° |
| 2026-05-01 12:12 | 41.85496 | 41.71078 | 35971 ft | 409 kts | 263° |
| 2026-05-01 12:12 | 41.85125 | 41.63446 | 35975 ft | 409 kts | 263° |
| 2026-05-01 12:13 | 41.84751 | 41.55834 | 35980 ft | 408 kts | 263° |
| 2026-05-01 12:13 | 41.84372 | 41.48240 | 35987 ft | 408 kts | 263° |
| 2026-05-01 12:14 | 41.83988 | 41.40657 | 35976 ft | 407 kts | 263° |
| 2026-05-01 12:14 | 41.83603 | 41.33135 | 35968 ft | 407 kts | 263° |
| 2026-05-01 12:15 | 41.83209 | 41.25558 | 35959 ft | 407 kts | 263° |
| 2026-05-01 12:15 | 41.82810 | 41.17976 | 35961 ft | 407 kts | 263° |
| 2026-05-01 12:16 | 41.82407 | 41.10405 | 35960 ft | 407 kts | 263° |
| 2026-05-01 12:16 | 41.82000 | 41.02841 | 35962 ft | 407 kts | 263° |
| 2026-05-01 12:17 | 41.81590 | 40.95314 | 35963 ft | 406 kts | 263° |
| 2026-05-01 12:17 | 41.81172 | 40.87753 | 35963 ft | 406 kts | 263° |
| 2026-05-01 12:18 | 41.80750 | 40.80194 | 35969 ft | 406 kts | 263° |
| 2026-05-01 12:18 | 41.80325 | 40.72695 | 35968 ft | 406 kts | 263° |
| 2026-05-01 12:19 | 41.80031 | 40.65117 | 35974 ft | 408 kts | 268° |
| 2026-05-01 12:19 | 41.80260 | 40.57501 | 35971 ft | 409 kts | 269° |
| 2026-05-01 12:20 | 41.80592 | 40.49889 | 35971 ft | 409 kts | 270° |
| 2026-05-01 12:20 | 41.80937 | 40.42265 | 35979 ft | 409 kts | 270° |
| 2026-05-01 12:21 | 41.81267 | 40.34683 | 35979 ft | 409 kts | 270° |
| 2026-05-01 12:21 | 41.81587 | 40.27059 | 35977 ft | 409 kts | 269° |
| 2026-05-01 12:22 | 41.81899 | 40.19449 | 35982 ft | 409 kts | 269° |
| 2026-05-01 12:22 | 41.82207 | 40.11818 | 35982 ft | 409 kts | 269° |
| 2026-05-01 12:23 | 41.82507 | 40.04255 | 35982 ft | 409 kts | 269° |
| 2026-05-01 12:23 | 41.82803 | 39.96633 | 35985 ft | 409 kts | 269° |
| 2026-05-01 12:24 | 41.83094 | 39.89024 | 35988 ft | 409 kts | 269° |
| 2026-05-01 12:24 | 41.83381 | 39.81414 | 35988 ft | 409 kts | 269° |
| 2026-05-01 12:25 | 41.83801 | 39.69991 | 35993 ft | 408 kts | 269° |
| 2026-05-01 12:26 | 41.84075 | 39.62381 | 35990 ft | 408 kts | 269° |
| 2026-05-01 12:26 | 41.84475 | 39.50998 | 35998 ft | 409 kts | 269° |
| 2026-05-01 12:27 | 41.84867 | 39.39544 | 35996 ft | 409 kts | 269° |
| 2026-05-01 12:28 | 41.85245 | 39.28155 | 36001 ft | 409 kts | 269° |
| 2026-05-01 12:29 | 41.85615 | 39.16729 | 36000 ft | 407 kts | 268° |
| 2026-05-01 12:29 | 41.85969 | 39.05374 | 36005 ft | 407 kts | 268° |
| 2026-05-01 12:30 | 41.86314 | 38.93972 | 36000 ft | 407 kts | 268° |
| 2026-05-01 12:31 | 41.86538 | 38.86369 | 36002 ft | 407 kts | 268° |
| 2026-05-01 12:31 | 41.86756 | 38.78799 | 36003 ft | 408 kts | 268° |
| 2026-05-01 12:32 | 41.86970 | 38.71168 | 36005 ft | 409 kts | 268° |
| 2026-05-01 12:32 | 41.87283 | 38.59720 | 36008 ft | 409 kts | 268° |
| 2026-05-01 12:33 | 41.87484 | 38.52131 | 35999 ft | 409 kts | 268° |
| 2026-05-01 12:33 | 41.87681 | 38.44503 | 36002 ft | 409 kts | 268° |
| 2026-05-01 12:34 | 41.87873 | 38.36883 | 36006 ft | 408 kts | 267° |
| 2026-05-01 12:34 | 41.88059 | 38.29262 | 36004 ft | 408 kts | 267° |
| 2026-05-01 12:35 | 41.88241 | 38.21637 | 36007 ft | 408 kts | 267° |
| 2026-05-01 12:35 | 41.88416 | 38.14070 | 36007 ft | 408 kts | 267° |
| 2026-05-01 12:36 | 41.88587 | 38.06465 | 36010 ft | 408 kts | 267° |
| 2026-05-01 12:36 | 41.88753 | 37.98843 | 36015 ft | 408 kts | 267° |
| 2026-05-01 12:37 | 41.88915 | 37.91226 | 36011 ft | 408 kts | 267° |
| 2026-05-01 12:37 | 41.89071 | 37.83617 | 36013 ft | 408 kts | 267° |
| 2026-05-01 12:38 | 41.89221 | 37.76034 | 36014 ft | 409 kts | 267° |
| 2026-05-01 12:38 | 41.89368 | 37.68399 | 36018 ft | 409 kts | 267° |
| 2026-05-01 12:39 | 41.89510 | 37.60762 | 36020 ft | 409 kts | 267° |
| 2026-05-01 12:39 | 41.89646 | 37.53176 | 36021 ft | 408 kts | 267° |
| 2026-05-01 12:40 | 41.89777 | 37.45557 | 36020 ft | 408 kts | 266° |
| 2026-05-01 12:40 | 41.89903 | 37.37937 | 36026 ft | 408 kts | 266° |
| 2026-05-01 12:41 | 41.90024 | 37.30318 | 36026 ft | 408 kts | 266° |
| 2026-05-01 12:41 | 41.90139 | 37.22713 | 36032 ft | 408 kts | 266° |
| 2026-05-01 12:42 | 41.90251 | 37.15104 | 36053 ft | 407 kts | 266° |
| 2026-05-01 12:42 | 41.90358 | 37.07519 | 36037 ft | 405 kts | 266° |
| 2026-05-01 12:43 | 41.90625 | 37.00002 | 36035 ft | 407 kts | 269° |
| 2026-05-01 12:43 | 41.91156 | 36.92424 | 36040 ft | 408 kts | 270° |
| 2026-05-01 12:44 | 41.91719 | 36.84837 | 36041 ft | 408 kts | 270° |
| 2026-05-01 12:45 | 41.92755 | 36.69723 | 36045 ft | 406 kts | 270° |
| 2026-05-01 12:45 | 41.93250 | 36.62167 | 36041 ft | 405 kts | 270° |
| 2026-05-01 12:46 | 41.93740 | 36.54608 | 36048 ft | 406 kts | 270° |
| 2026-05-01 12:46 | 41.94227 | 36.47050 | 36047 ft | 406 kts | 270° |
| 2026-05-01 12:47 | 41.94707 | 36.39522 | 36054 ft | 406 kts | 269° |
| 2026-05-01 12:47 | 41.95184 | 36.31963 | 36055 ft | 406 kts | 269° |
| 2026-05-01 12:48 | 41.95656 | 36.24404 | 36057 ft | 406 kts | 269° |
| 2026-05-01 12:48 | 41.96121 | 36.16878 | 36056 ft | 406 kts | 269° |
| 2026-05-01 12:49 | 41.96583 | 36.09311 | 36059 ft | 406 kts | 269° |
| 2026-05-01 12:49 | 41.97040 | 36.01752 | 36062 ft | 406 kts | 269° |
| 2026-05-01 12:50 | 41.97491 | 35.94225 | 36072 ft | 405 kts | 269° |
| 2026-05-01 12:50 | 41.97938 | 35.86658 | 36067 ft | 406 kts | 269° |
| 2026-05-01 12:51 | 41.98380 | 35.79091 | 36070 ft | 406 kts | 269° |
| 2026-05-01 12:52 | 41.99034 | 35.67736 | 36076 ft | 406 kts | 269° |
| 2026-05-01 12:52 | 41.99676 | 35.56410 | 36078 ft | 406 kts | 269° |
| 2026-05-01 12:53 | 42.00308 | 35.45050 | 36079 ft | 406 kts | 269° |
| 2026-05-01 12:54 | 42.00720 | 35.37537 | 36081 ft | 405 kts | 269° |
| 2026-05-01 12:54 | 42.01333 | 35.26183 | 36088 ft | 406 kts | 269° |
| 2026-05-01 12:55 | 42.01934 | 35.14841 | 36097 ft | 404 kts | 269° |
| 2026-05-01 12:56 | 42.02205 | 35.07316 | 36100 ft | 400 kts | 263° |
| 2026-05-01 12:56 | 42.01941 | 34.99848 | 36097 ft | 399 kts | 262° |
| 2026-05-01 12:57 | 42.01569 | 34.92442 | 36104 ft | 398 kts | 262° |
| 2026-05-01 12:57 | 42.00987 | 34.81319 | 36108 ft | 398 kts | 262° |
| 2026-05-01 12:58 | 42.00625 | 34.73888 | 36111 ft | 397 kts | 262° |
| 2026-05-01 12:59 | 42.00146 | 34.64024 | 36113 ft | 396 kts | 262° |
| 2026-05-01 12:59 | 41.99594 | 34.52930 | 36111 ft | 396 kts | 262° |
| 2026-05-01 13:00 | 41.99029 | 34.41848 | 36124 ft | 396 kts | 262° |